Time;durP1;ratioP1;P1;durP2;ratioP2;P2;SDS_P1;SDS_P2;PMS_P1;PMS_P2;Temp;Humidity;BMP_temperature;BMP_pressure;BME280_temperature;BME280_humidity;BME280_pressure;Samples;Min_cycle;Max_cycle;Signal;HPM_P1;HPM_P2
2022/09/01 00:01:17;;;;;;;3.67;1.85;;;;;;;;;;1748722;82;21038;-73
2022/09/01 00:03:39;;;;;;;2.17;1.70;;;;;;;;;;1730355;82;21056;-73
2022/09/01 00:06:08;;;;;;;2.42;1.87;;;;;;;;;;1730235;82;21071;-73
2022/09/01 00:08:33;;;;;;;2.90;1.50;;;;;;;;;;1724614;82;21120;-73
2022/09/01 00:11:00;;;;;;;2.35;1.82;;;;;;;;;;1731376;82;21111;-73
2022/09/01 00:13:31;;;;;;;3.30;2.10;;;;;;;;;;1725666;82;21060;-73
2022/09/01 00:15:55;;;;;;;3.40;2.00;;;;;;;;;;1721325;83;21060;-73
2022/09/01 00:18:22;;;;;;;3.60;1.92;;;;;;;;;;1724168;82;21181;-73
2022/09/01 00:20:49;;;;;;;2.02;1.70;;;;;;;;;;1723464;82;21001;-73
2022/09/01 00:23:15;;;;;;;2.75;1.95;;;;;;;;;;1722715;83;21071;-73
2022/09/01 00:25:41;;;;;;;3.58;1.95;;;;;;;;;;1722280;83;21080;-73
2022/09/01 00:28:07;;;;;;;4.53;1.80;;;;;;;;;;1724260;82;21052;-73
2022/09/01 00:30:33;;;;;;;2.95;1.80;;;;;;;;;;1722346;83;21604;-73
2022/09/01 00:32:59;;;;;;;2.35;1.57;;;;;;;;;;1722620;83;21076;-74
2022/09/01 00:35:26;;;;;;;4.35;1.72;;;;;;;;;;1722546;83;21025;-75
2022/09/01 00:37:53;;;;;;;2.65;1.50;;;;;;;;;;1723008;82;21100;-75
2022/09/01 00:40:19;;;;;;;2.15;1.77;;;;;;;;;;1726412;82;22120;-73
2022/09/01 00:42:47;;;;;;;3.22;1.52;;;;;;;;;;1724548;82;21096;-73
2022/09/01 00:45:13;;;;;;;3.05;1.90;;;;;;;;;;1686595;85;22130;-73
2022/09/01 00:47:40;;;;;;;4.15;1.70;;;;;;;;;;1724227;82;21013;-73
2022/09/01 00:50:07;;;;;;;4.12;1.80;;;;;;;;;;1723007;83;21036;-73
2022/09/01 00:52:34;;;;;;;1.98;1.60;;;;;;;;;;1726494;82;21086;-73
2022/09/01 00:55:04;;;;;;;2.55;1.72;;;;;;;;;;1713377;83;21052;-73
2022/09/01 00:57:31;;;;;;;2.95;1.82;;;;;;;;;;1726180;82;21043;-74
2022/09/01 00:59:59;;;;;;;3.50;2.00;;;;;;;;;;1714667;82;22145;-73
2022/09/01 01:05:15;;;;;;;2.67;1.77;;;;;;;;;;1650389;80;75643;-72
2022/09/01 01:07:43;;;;;;;2.45;1.72;;;;;;;;;;1642465;87;21381;-72
2022/09/01 01:10:10;;;;;;;2.52;1.62;;;;;;;;;;1640165;87;21056;-72
2022/09/01 01:12:39;;;;;;;2.05;1.65;;;;;;;;;;1668688;86;21689;-72
2022/09/01 01:15:09;;;;;;;2.30;1.52;;;;;;;;;;1668387;86;21121;-72
2022/09/01 01:17:36;;;;;;;2.60;1.67;;;;;;;;;;1657261;86;21056;-72
2022/09/01 01:23:01;;;;;;;2.67;1.50;;;;;;;;;;1702579;84;21554;-73
2022/09/01 01:25:37;;;;;;;3.15;1.55;;;;;;;;;;1668693;86;21088;-72
2022/09/01 01:28:05;;;;;;;3.37;1.60;;;;;;;;;;1702361;84;21067;-72
2022/09/01 01:30:35;;;;;;;2.22;1.42;;;;;;;;;;1726111;82;21563;-72
2022/09/01 01:33:00;;;;;;;3.08;1.30;;;;;;;;;;1668770;84;21147;-71
2022/09/01 01:35:28;;;;;;;4.15;1.70;;;;;;;;;;1668840;86;21594;-71
2022/09/01 01:37:54;;;;;;;2.27;1.27;;;;;;;;;;1668287;86;21032;-71
2022/09/01 01:40:21;;;;;;;2.70;1.65;;;;;;;;;;1669056;86;21116;-71
2022/09/01 01:42:49;;;;;;;3.10;1.70;;;;;;;;;;1668008;86;21631;-71
2022/09/01 01:45:16;;;;;;;4.35;1.80;;;;;;;;;;1668620;86;21076;-71
2022/09/01 01:47:46;;;;;;;2.33;1.60;;;;;;;;;;1668839;86;21095;-71
2022/09/01 01:50:13;;;;;;;3.37;1.70;;;;;;;;;;1668853;86;21103;-71
2022/09/01 01:52:40;;;;;;;2.33;1.90;;;;;;;;;;1668834;86;21072;-71
2022/09/01 01:55:11;;;;;;;4.67;2.50;;;;;;;;;;1668790;86;21566;-71
2022/09/01 01:57:36;;;;;;;4.70;2.50;;;;;;;;;;1667790;85;21096;-70
2022/09/01 02:00:03;;;;;;;7.05;3.37;;;;;;;;;;1667749;86;21555;-70
2022/09/01 02:02:31;;;;;;;7.40;3.52;;;;;;;;;;1667422;86;21116;-70
2022/09/01 02:04:59;;;;;;;5.95;3.20;;;;;;;;;;1735688;81;21124;-70
2022/09/01 02:07:26;;;;;;;7.60;3.52;;;;;;;;;;1738275;82;21045;-70
2022/09/01 02:09:52;;;;;;;6.62;3.35;;;;;;;;;;1727104;81;20971;-70
2022/09/01 02:12:20;;;;;;;7.40;3.37;;;;;;;;;;1731618;82;21016;-70
2022/09/01 02:14:48;;;;;;;7.35;3.77;;;;;;;;;;1743077;82;21049;-72
2022/09/01 02:17:15;;;;;;;7.87;4.15;;;;;;;;;;1738050;82;21030;-71
2022/09/01 02:19:42;;;;;;;7.10;3.77;;;;;;;;;;1733545;81;21041;-70
2022/09/01 02:22:09;;;;;;;8.03;3.98;;;;;;;;;;1730675;81;21086;-70
2022/09/01 02:24:37;;;;;;;7.10;3.77;;;;;;;;;;1736709;82;21017;-70
2022/09/01 02:27:05;;;;;;;7.60;4.40;;;;;;;;;;1733981;81;21051;-71
2022/09/01 02:29:31;;;;;;;8.60;4.40;;;;;;;;;;1731489;83;21063;-71
2022/09/01 02:31:58;;;;;;;8.45;4.10;;;;;;;;;;1728170;81;21019;-71
2022/09/01 02:34:27;;;;;;;8.28;4.78;;;;;;;;;;1724777;83;21110;-71
2022/09/01 02:36:53;;;;;;;6.92;4.20;;;;;;;;;;1730721;82;21539;-71
2022/09/01 02:39:23;;;;;;;8.13;4.53;;;;;;;;;;1736165;81;21037;-71
2022/09/01 02:41:50;;;;;;;9.30;4.55;;;;;;;;;;1730903;83;21030;-71
2022/09/01 02:44:20;;;;;;;8.23;4.85;;;;;;;;;;1731541;82;21076;-71
2022/09/01 02:46:46;;;;;;;9.15;4.67;;;;;;;;;;1741745;82;21033;-71
2022/09/01 02:49:18;;;;;;;8.58;4.03;;;;;;;;;;1716546;83;21050;-71
2022/09/01 02:51:46;;;;;;;8.05;4.42;;;;;;;;;;1716379;83;21059;-71
2022/09/01 02:54:17;;;;;;;7.95;4.55;;;;;;;;;;1716400;83;21582;-71
2022/09/01 02:56:40;;;;;;;6.62;4.67;;;;;;;;;;1715794;83;21199;-72
2022/09/01 02:59:11;;;;;;;7.12;4.50;;;;;;;;;;1716531;82;21033;-71
2022/09/01 03:01:35;;;;;;;8.78;4.85;;;;;;;;;;1716165;83;21046;-70
2022/09/01 03:04:02;;;;;;;6.20;4.50;;;;;;;;;;1720625;81;21128;-69
2022/09/01 03:06:30;;;;;;;7.03;4.67;;;;;;;;;;1782014;80;21087;-70
2022/09/01 03:08:59;;;;;;;7.35;4.92;;;;;;;;;;1763128;80;21056;-71
2022/09/01 03:11:26;;;;;;;8.33;5.10;;;;;;;;;;1768560;80;21038;-71
2022/09/01 03:13:52;;;;;;;8.25;4.95;;;;;;;;;;1732789;80;21017;-70
2022/09/01 03:16:21;;;;;;;6.35;4.33;;;;;;;;;;1746129;81;21171;-70
2022/09/01 03:18:49;;;;;;;8.43;4.87;;;;;;;;;;1747369;80;21020;-70
2022/09/01 03:21:16;;;;;;;8.38;4.80;;;;;;;;;;1779068;80;21835;-70
2022/09/01 03:23:44;;;;;;;8.28;4.65;;;;;;;;;;1768025;80;21076;-71
2022/09/01 03:26:10;;;;;;;7.28;4.50;;;;;;;;;;1762057;80;21043;-70
2022/09/01 03:28:38;;;;;;;8.03;4.70;;;;;;;;;;1761148;80;21009;-70
2022/09/01 03:31:04;;;;;;;7.67;4.87;;;;;;;;;;1747494;80;21047;-70
2022/09/01 03:33:31;;;;;;;8.38;4.87;;;;;;;;;;1758998;80;21465;-69
2022/09/01 03:35:58;;;;;;;10.03;4.70;;;;;;;;;;1760699;80;20989;-70
2022/09/01 03:38:24;;;;;;;9.40;4.47;;;;;;;;;;1736477;81;21087;-70
2022/09/01 03:40:53;;;;;;;13.40;5.05;;;;;;;;;;1761854;80;21535;-70
2022/09/01 03:43:22;;;;;;;8.70;5.08;;;;;;;;;;1762277;80;21020;-70
2022/09/01 03:45:47;;;;;;;17.30;5.40;;;;;;;;;;1732070;82;21047;-69
2022/09/01 03:48:15;;;;;;;10.05;4.85;;;;;;;;;;1754845;82;21062;-70
2022/09/01 03:50:45;;;;;;;9.88;4.72;;;;;;;;;;1750651;80;21072;-70
2022/09/01 03:53:12;;;;;;;8.90;4.70;;;;;;;;;;1729627;82;22207;-69
2022/09/01 03:55:39;;;;;;;8.58;5.12;;;;;;;;;;1694908;83;21124;-69
2022/09/01 03:58:06;;;;;;;8.78;4.50;;;;;;;;;;1696768;84;21045;-69
2022/09/01 04:00:37;;;;;;;8.53;5.12;;;;;;;;;;1748798;81;21007;-70
2022/09/01 04:03:06;;;;;;;8.23;4.95;;;;;;;;;;1746415;82;21051;-70
2022/09/01 04:05:33;;;;;;;8.03;4.72;;;;;;;;;;1744095;81;21044;-70
2022/09/01 04:08:02;;;;;;;8.43;5.12;;;;;;;;;;1749614;82;21538;-69
2022/09/01 04:10:31;;;;;;;9.75;5.72;;;;;;;;;;1737097;82;20990;-69
2022/09/01 04:12:58;;;;;;;10.93;5.75;;;;;;;;;;1754960;82;21122;-70
2022/09/01 04:15:24;;;;;;;11.12;5.72;;;;;;;;;;1740364;82;20969;-69
2022/09/01 04:18:11;;;;;;;8.83;5.72;;;;;;;;;;1730883;82;21081;-69
2022/09/01 04:20:49;;;;;;;10.20;5.67;;;;;;;;;;1750896;81;21492;-69
2022/09/01 04:23:20;;;;;;;10.00;5.33;;;;;;;;;;1722850;82;21506;-69
2022/09/01 04:25:48;;;;;;;11.70;5.95;;;;;;;;;;1719828;83;22120;-69
2022/09/01 04:30:30;;;;;;;11.65;7.28;;;;;;;;;;1792839;78;23305;-67
2022/09/01 04:32:55;;;;;;;12.30;6.80;;;;;;;;;;1766956;80;21059;-68
2022/09/01 04:35:31;;;;;;;11.73;6.90;;;;;;;;;;1761762;80;21090;-67
2022/09/01 04:37:50;;;;;;;10.90;6.78;;;;;;;;;;1782839;80;22075;-68
2022/09/01 04:40:17;;;;;;;11.78;6.58;;;;;;;;;;1727642;81;21103;-67
2022/09/01 04:42:44;;;;;;;11.48;6.90;;;;;;;;;;1786716;80;21511;-68
2022/09/01 04:45:11;;;;;;;11.08;6.78;;;;;;;;;;1792068;79;21257;-66
2022/09/01 04:47:41;;;;;;;12.78;6.80;;;;;;;;;;1764648;80;21021;-68
2022/09/01 04:50:16;;;;;;;11.80;6.53;;;;;;;;;;1761350;81;21087;-69
2022/09/01 04:52:47;;;;;;;11.25;6.87;;;;;;;;;;1742399;81;20990;-69
2022/09/01 04:55:20;;;;;;;13.43;7.25;;;;;;;;;;1758910;80;21064;-68
2022/09/01 04:57:48;;;;;;;12.73;7.83;;;;;;;;;;1769359;80;21016;-68
2022/09/01 05:00:21;;;;;;;16.93;7.90;;;;;;;;;;1785162;80;20995;-70
2022/09/01 05:02:44;;;;;;;12.95;7.33;;;;;;;;;;1768921;80;21032;-66
2022/09/01 05:05:11;;;;;;;11.83;6.42;;;;;;;;;;1764397;80;21147;-68
2022/09/01 05:07:38;;;;;;;13.72;7.65;;;;;;;;;;1714646;82;21033;-67
2022/09/01 05:10:05;;;;;;;16.12;8.05;;;;;;;;;;1736815;82;21052;-67
2022/09/01 05:12:46;;;;;;;13.70;7.12;;;;;;;;;;1732334;82;21051;-67
2022/09/01 05:15:13;;;;;;;13.18;7.17;;;;;;;;;;1730067;82;21001;-68
2022/09/01 05:17:40;;;;;;;12.95;7.15;;;;;;;;;;1735391;82;21060;-68
2022/09/01 05:20:09;;;;;;;11.95;7.20;;;;;;;;;;1740468;80;21024;-66
2022/09/01 05:22:39;;;;;;;13.28;8.18;;;;;;;;;;1738674;82;21040;-66
2022/09/01 05:25:15;;;;;;;12.93;7.55;;;;;;;;;;1678838;85;21023;-67
2022/09/01 05:27:48;;;;;;;12.28;7.50;;;;;;;;;;1704911;83;21059;-66
2022/09/01 05:30:15;;;;;;;13.43;8.03;;;;;;;;;;1673577;85;21109;-66
2022/09/01 05:32:42;;;;;;;13.62;7.85;;;;;;;;;;1724479;82;21021;-66
2022/09/01 05:35:09;;;;;;;13.25;7.17;;;;;;;;;;1727926;82;22387;-66
2022/09/01 05:37:40;;;;;;;10.75;6.58;;;;;;;;;;1720239;82;21068;-66
2022/09/01 05:40:08;;;;;;;9.75;6.28;;;;;;;;;;1721062;82;21009;-66
2022/09/01 05:42:38;;;;;;;12.20;6.92;;;;;;;;;;1698229;83;21009;-67
2022/09/01 05:45:04;;;;;;;12.90;6.30;;;;;;;;;;1719980;82;21053;-67
2022/09/01 05:47:35;;;;;;;10.53;6.37;;;;;;;;;;1721221;82;21017;-66
2022/09/01 05:50:00;;;;;;;8.83;5.75;;;;;;;;;;1709599;84;21057;-66
2022/09/01 05:52:28;;;;;;;10.58;5.75;;;;;;;;;;1720249;82;21096;-67
2022/09/01 05:54:55;;;;;;;10.90;5.58;;;;;;;;;;1739101;82;21053;-67
2022/09/01 05:57:22;;;;;;;8.55;5.12;;;;;;;;;;1727760;82;21504;-67
2022/09/01 05:59:52;;;;;;;11.33;6.12;;;;;;;;;;1730155;82;21060;-66
2022/09/01 06:02:22;;;;;;;9.25;5.35;;;;;;;;;;1732581;82;21037;-67
2022/09/01 06:04:49;;;;;;;11.63;5.60;;;;;;;;;;1734174;82;21257;-67
2022/09/01 06:07:17;;;;;;;9.90;5.85;;;;;;;;;;1674539;84;21138;-67
2022/09/01 06:09:46;;;;;;;9.95;4.58;;;;;;;;;;1690220;84;21072;-67
2022/09/01 06:12:16;;;;;;;8.88;4.85;;;;;;;;;;1727973;82;21515;-67
2022/09/01 06:14:44;;;;;;;11.80;4.90;;;;;;;;;;1699857;82;21033;-68
2022/09/01 06:17:15;;;;;;;9.78;4.55;;;;;;;;;;1714125;82;21105;-67
2022/09/01 06:19:41;;;;;;;10.05;4.62;;;;;;;;;;1727276;82;21033;-67
2022/09/01 06:22:09;;;;;;;6.95;3.60;;;;;;;;;;1717786;82;21566;-65
2022/09/01 06:24:38;;;;;;;4.87;3.65;;;;;;;;;;1730066;82;21080;-67
2022/09/01 06:27:08;;;;;;;6.87;3.67;;;;;;;;;;1735985;82;21022;-66
2022/09/01 06:29:34;;;;;;;8.55;3.65;;;;;;;;;;1726103;82;21112;-67
2022/09/01 06:32:01;;;;;;;11.53;4.75;;;;;;;;;;1744251;82;21178;-67
2022/09/01 06:34:28;;;;;;;8.30;4.33;;;;;;;;;;1733185;82;21039;-69
2022/09/01 06:36:55;;;;;;;6.37;3.70;;;;;;;;;;1740676;82;21036;-67
2022/09/01 06:39:22;;;;;;;8.30;3.90;;;;;;;;;;1734211;82;21032;-68
2022/09/01 06:41:53;;;;;;;5.80;3.70;;;;;;;;;;1734119;82;21488;-68
2022/09/01 06:44:22;;;;;;;6.30;3.62;;;;;;;;;;1741206;82;21029;-67
2022/09/01 06:46:50;;;;;;;8.30;3.15;;;;;;;;;;1730201;82;21029;-68
2022/09/01 06:49:18;;;;;;;5.90;3.37;;;;;;;;;;1722728;82;21033;-68
2022/09/01 06:51:46;;;;;;;7.40;3.47;;;;;;;;;;1730268;82;21578;-68
2022/09/01 06:54:13;;;;;;;6.65;3.72;;;;;;;;;;1726418;82;21025;-68
2022/09/01 06:56:40;;;;;;;7.25;3.90;;;;;;;;;;1743234;82;21029;-68
2022/09/01 06:59:07;;;;;;;6.78;3.60;;;;;;;;;;1737025;82;21029;-70
2022/09/01 07:01:34;;;;;;;6.90;4.00;;;;;;;;;;1734407;82;21084;-69
2022/09/01 07:04:02;;;;;;;5.65;3.50;;;;;;;;;;1728758;82;21080;-69
2022/09/01 07:06:39;;;;;;;6.22;3.00;;;;;;;;;;1737055;82;21018;-71
2022/09/01 07:09:19;;;;;;;5.28;2.77;;;;;;;;;;1736553;82;21516;-69
2022/09/01 07:11:47;;;;;;;5.37;2.98;;;;;;;;;;1722433;82;21040;-69
2022/09/01 07:14:15;;;;;;;6.28;2.85;;;;;;;;;;1741414;80;21115;-69
2022/09/01 07:16:42;;;;;;;8.00;4.03;;;;;;;;;;1760817;80;21044;-69
2022/09/01 07:19:13;;;;;;;10.80;3.58;;;;;;;;;;1736819;82;21056;-70
2022/09/01 07:21:45;;;;;;;6.17;3.72;;;;;;;;;;1727293;80;21056;-70
2022/09/01 07:24:12;;;;;;;5.90;3.58;;;;;;;;;;1732126;80;21061;-70
2022/09/01 07:26:41;;;;;;;5.40;3.67;;;;;;;;;;1750170;80;22034;-69
2022/09/01 07:29:08;;;;;;;6.70;3.92;;;;;;;;;;1729236;81;21084;-69
2022/09/01 07:31:37;;;;;;;5.03;3.45;;;;;;;;;;1749279;82;21100;-70
2022/09/01 07:34:04;;;;;;;6.62;4.03;;;;;;;;;;1745795;80;21013;-70
2022/09/01 07:36:31;;;;;;;5.55;3.80;;;;;;;;;;1746710;82;21043;-69
2022/09/01 07:39:00;;;;;;;6.78;3.45;;;;;;;;;;1744522;82;21008;-69
2022/09/01 07:41:28;;;;;;;6.12;4.03;;;;;;;;;;1731933;82;21037;-69
2022/09/01 07:44:00;;;;;;;4.12;3.02;;;;;;;;;;1748038;82;21040;-68
2022/09/01 07:46:37;;;;;;;10.03;4.50;;;;;;;;;;1733666;82;21531;-69
2022/09/01 07:49:05;;;;;;;12.93;5.10;;;;;;;;;;1738795;82;20991;-70
2022/09/01 07:51:33;;;;;;;42.20;26.77;;;;;;;;;;1723413;83;21607;-68
2022/09/01 07:54:01;;;;;;;65.62;44.20;;;;;;;;;;1743689;82;20982;-67
2022/09/01 07:56:29;;;;;;;25.30;14.05;;;;;;;;;;1751350;81;21956;-68
2022/09/01 07:58:56;;;;;;;10.45;6.92;;;;;;;;;;1733185;82;21071;-68
2022/09/01 08:01:24;;;;;;;13.62;7.65;;;;;;;;;;1746122;82;21088;-67
2022/09/01 08:03:52;;;;;;;14.33;7.37;;;;;;;;;;1745616;82;21134;-67
2022/09/01 08:06:20;;;;;;;15.80;8.30;;;;;;;;;;1743685;82;20996;-67
2022/09/01 08:08:47;;;;;;;13.25;8.10;;;;;;;;;;1730051;82;21281;-67
2022/09/01 08:11:18;;;;;;;15.00;9.13;;;;;;;;;;1731134;82;21084;-67
2022/09/01 08:13:44;;;;;;;17.05;9.70;;;;;;;;;;1733956;82;21052;-67
2022/09/01 08:16:11;;;;;;;11.18;6.70;;;;;;;;;;1729584;82;21016;-67
2022/09/01 08:18:40;;;;;;;15.72;7.90;;;;;;;;;;1743016;80;21067;-67
2022/09/01 08:21:07;;;;;;;13.45;8.15;;;;;;;;;;1749807;82;21056;-66
2022/09/01 08:23:53;;;;;;;19.55;10.30;;;;;;;;;;1753368;81;21951;-67
2022/09/01 08:26:20;;;;;;;9.83;5.42;;;;;;;;;;1744658;82;21112;-66
2022/09/01 08:28:47;;;;;;;14.73;8.73;;;;;;;;;;1730728;81;21583;-66
2022/09/01 08:31:14;;;;;;;13.08;7.87;;;;;;;;;;1735670;82;21068;-66
2022/09/01 08:33:41;;;;;;;22.25;11.63;;;;;;;;;;1705076;82;21002;-67
2022/09/01 08:36:09;;;;;;;18.70;10.40;;;;;;;;;;1733069;82;21069;-66
2022/09/01 08:38:37;;;;;;;14.63;7.75;;;;;;;;;;1736394;82;21028;-66
2022/09/01 08:41:04;;;;;;;21.07;12.28;;;;;;;;;;1733576;82;21516;-67
2022/09/01 08:43:40;;;;;;;26.87;16.17;;;;;;;;;;1736881;82;21546;-68
2022/09/01 08:46:08;;;;;;;26.87;14.35;;;;;;;;;;1729730;82;21547;-67
2022/09/01 08:48:37;;;;;;;26.10;15.43;;;;;;;;;;1722652;81;21559;-65
2022/09/01 08:51:22;;;;;;;17.37;8.90;;;;;;;;;;1735882;82;21036;-65
2022/09/01 08:54:00;;;;;;;24.57;14.68;;;;;;;;;;1731610;82;21072;-68
2022/09/01 08:56:26;;;;;;;28.98;15.78;;;;;;;;;;1730795;82;20977;-69
2022/09/01 08:58:54;;;;;;;59.27;32.35;;;;;;;;;;1730738;82;21531;-68
2022/09/01 09:01:33;;;;;;;38.48;18.85;;;;;;;;;;1734055;82;21024;-67
2022/09/01 09:04:04;;;;;;;35.13;18.90;;;;;;;;;;1694217;84;21082;-67
2022/09/01 09:06:38;;;;;;;43.52;22.80;;;;;;;;;;1662359;85;21059;-69
2022/09/01 09:09:06;;;;;;;51.85;26.60;;;;;;;;;;1680157;84;21067;-69
2022/09/01 09:11:35;;;;;;;41.00;23.10;;;;;;;;;;1726035;82;22039;-68
2022/09/01 09:14:20;;;;;;;49.00;26.48;;;;;;;;;;1735092;82;21628;-69
2022/09/01 09:16:48;;;;;;;50.30;27.75;;;;;;;;;;1735233;82;21013;-68
2022/09/01 09:19:34;;;;;;;55.15;29.72;;;;;;;;;;1736307;82;21033;-69
2022/09/01 09:22:01;;;;;;;53.45;28.73;;;;;;;;;;1732628;82;21011;-69
2022/09/01 09:24:48;;;;;;;55.55;30.48;;;;;;;;;;1731910;82;21044;-69
2022/09/01 09:27:25;;;;;;;46.77;23.55;;;;;;;;;;1736354;82;21009;-68
2022/09/01 09:29:53;;;;;;;41.80;23.57;;;;;;;;;;1735677;81;21041;-68
2022/09/01 09:32:20;;;;;;;37.85;22.93;;;;;;;;;;1736794;82;21713;-68
2022/09/01 09:34:46;;;;;;;36.95;22.62;;;;;;;;;;1740142;80;20986;-68
2022/09/01 09:37:30;;;;;;;36.65;22.00;;;;;;;;;;1751223;82;21033;-68
2022/09/01 09:40:10;;;;;;;41.10;21.17;;;;;;;;;;1739766;82;21009;-67
2022/09/01 09:42:39;;;;;;;30.65;18.20;;;;;;;;;;1747234;82;21021;-68
2022/09/01 09:45:20;;;;;;;12.73;8.28;;;;;;;;;;1731690;82;21711;-69
2022/09/01 09:47:46;;;;;;;9.93;6.40;;;;;;;;;;1733080;82;20997;-68
2022/09/01 09:50:16;;;;;;;9.65;5.53;;;;;;;;;;1739377;81;21067;-65
2022/09/01 09:52:45;;;;;;;9.20;5.00;;;;;;;;;;1741486;82;21032;-67
2022/09/01 09:55:21;;;;;;;7.92;4.85;;;;;;;;;;1740056;82;21067;-67
2022/09/01 09:57:48;;;;;;;9.15;4.72;;;;;;;;;;1725184;82;21045;-67
2022/09/01 10:00:16;;;;;;;7.85;4.25;;;;;;;;;;1736956;82;21544;-67
2022/09/01 10:02:43;;;;;;;6.30;3.90;;;;;;;;;;1738091;81;21113;-68
2022/09/01 10:05:30;;;;;;;6.65;4.03;;;;;;;;;;1738576;82;21024;-68
2022/09/01 10:07:57;;;;;;;7.25;4.55;;;;;;;;;;1747178;81;21037;-68
2022/09/01 10:10:25;;;;;;;6.33;3.55;;;;;;;;;;1744478;82;21721;-68
2022/09/01 10:12:52;;;;;;;5.12;2.58;;;;;;;;;;1732146;82;21076;-68
2022/09/01 10:15:18;;;;;;;4.70;2.55;;;;;;;;;;1731113;82;21014;-68
2022/09/01 10:17:45;;;;;;;4.45;2.27;;;;;;;;;;1729833;82;21168;-68
2022/09/01 10:20:16;;;;;;;4.95;2.15;;;;;;;;;;1664600;85;21104;-69
2022/09/01 10:22:45;;;;;;;5.00;2.30;;;;;;;;;;1691526;84;21304;-69
2022/09/01 10:25:15;;;;;;;5.22;2.20;;;;;;;;;;1694038;84;21574;-70
2022/09/01 10:27:42;;;;;;;2.95;1.87;;;;;;;;;;1726456;82;21496;-69
2022/09/01 10:30:18;;;;;;;3.67;1.87;;;;;;;;;;1728632;82;21012;-70
2022/09/01 10:32:47;;;;;;;2.85;1.62;;;;;;;;;;1730759;82;21586;-69
2022/09/01 10:35:18;;;;;;;2.55;2.10;;;;;;;;;;1728333;82;21075;-68
2022/09/01 10:37:45;;;;;;;5.33;1.87;;;;;;;;;;1731011;82;21295;-68
2022/09/01 10:40:16;;;;;;;1.95;1.25;;;;;;;;;;1730732;82;21575;-68
2022/09/01 10:42:46;;;;;;;7.97;1.52;;;;;;;;;;1729714;82;22124;-68
2022/09/01 10:45:17;;;;;;;3.27;1.42;;;;;;;;;;1731632;81;21017;-67
2022/09/01 10:47:44;;;;;;;1.20;1.05;;;;;;;;;;1742930;80;21057;-68
2022/09/01 10:50:30;;;;;;;10.85;7.37;;;;;;;;;;1727100;82;21020;-68
2022/09/01 10:52:58;;;;;;;18.37;12.75;;;;;;;;;;1734967;82;21012;-68
2022/09/01 10:55:26;;;;;;;3.12;2.05;;;;;;;;;;1743340;82;21460;-65
2022/09/01 10:57:55;;;;;;;2.62;1.70;;;;;;;;;;1735379;82;21034;-66
2022/09/01 11:00:26;;;;;;;1.72;1.50;;;;;;;;;;1729355;82;21107;-66
2022/09/01 11:02:57;;;;;;;2.87;1.57;;;;;;;;;;1709222;84;21061;-66
2022/09/01 11:05:23;;;;;;;4.90;1.55;;;;;;;;;;1728402;82;21609;-66
2022/09/01 11:07:49;;;;;;;3.20;1.70;;;;;;;;;;1736109;82;21008;-66
2022/09/01 11:10:21;;;;;;;3.37;1.87;;;;;;;;;;1653558;86;21127;-65
2022/09/01 11:12:58;;;;;;;3.87;1.70;;;;;;;;;;1669971;85;21550;-66
2022/09/01 11:15:34;;;;;;;3.98;2.05;;;;;;;;;;1698054;83;21024;-66
2022/09/01 11:18:01;;;;;;;3.80;2.30;;;;;;;;;;1740894;82;20973;-67
2022/09/01 11:20:32;;;;;;;4.12;2.37;;;;;;;;;;1738392;82;21051;-66
2022/09/01 11:23:03;;;;;;;5.62;2.50;;;;;;;;;;1738282;82;20997;-66
2022/09/01 11:25:32;;;;;;;18.82;16.90;;;;;;;;;;1737552;82;21044;-67
2022/09/01 11:28:03;;;;;;;29.52;19.62;;;;;;;;;;1744420;82;21477;-66
2022/09/01 11:30:32;;;;;;;41.65;30.20;;;;;;;;;;1734072;82;21552;-66
2022/09/01 11:33:03;;;;;;;5.90;3.47;;;;;;;;;;1721242;82;21077;-67
2022/09/01 11:35:29;;;;;;;10.53;3.87;;;;;;;;;;1715170;82;21065;-67
2022/09/01 11:37:56;;;;;;;8.70;3.67;;;;;;;;;;1726083;82;21060;-67
2022/09/01 11:40:24;;;;;;;8.00;3.65;;;;;;;;;;1727644;82;21473;-68
2022/09/01 11:42:52;;;;;;;11.08;3.98;;;;;;;;;;1723547;82;21064;-67
2022/09/01 11:45:20;;;;;;;7.83;4.50;;;;;;;;;;1725177;82;21064;-67
2022/09/01 11:47:57;;;;;;;8.80;4.35;;;;;;;;;;1720447;82;21069;-68
2022/09/01 11:50:33;;;;;;;8.83;5.12;;;;;;;;;;1726548;82;21596;-66
2022/09/01 11:53:02;;;;;;;12.43;4.80;;;;;;;;;;1735375;82;21056;-68
2022/09/01 11:55:33;;;;;;;8.43;5.00;;;;;;;;;;1729615;82;21013;-68
2022/09/01 11:57:59;;;;;;;11.48;5.10;;;;;;;;;;1716546;82;21080;-67
2022/09/01 12:00:27;;;;;;;7.35;4.65;;;;;;;;;;1731562;82;21103;-68
2022/09/01 12:02:53;;;;;;;8.33;4.60;;;;;;;;;;1728851;82;21655;-68
2022/09/01 12:05:24;;;;;;;6.45;4.10;;;;;;;;;;1735071;82;21088;-67
2022/09/01 12:07:52;;;;;;;6.70;3.65;;;;;;;;;;1723810;82;21065;-66
2022/09/01 12:10:25;;;;;;;9.65;4.75;;;;;;;;;;1722309;82;21084;-66
2022/09/01 12:12:53;;;;;;;20.88;12.33;;;;;;;;;;1725549;82;21052;-66
2022/09/01 12:15:22;;;;;;;6.10;3.17;;;;;;;;;;1733397;82;21014;-67
2022/09/01 12:17:48;;;;;;;7.55;4.80;;;;;;;;;;1712905;82;21104;-67
2022/09/01 12:20:26;;;;;;;11.53;2.90;;;;;;;;;;1726725;82;21053;-67
2022/09/01 12:22:52;;;;;;;17.85;3.40;;;;;;;;;;1732566;82;21524;-66
2022/09/01 12:25:24;;;;;;;6.20;2.37;;;;;;;;;;1725030;82;21141;-66
2022/09/01 12:27:51;;;;;;;5.75;1.95;;;;;;;;;;1729209;82;20998;-67
2022/09/01 12:30:17;;;;;;;3.10;2.00;;;;;;;;;;1731257;82;21049;-67
2022/09/01 12:32:44;;;;;;;3.60;2.17;;;;;;;;;;1740920;81;21063;-68
2022/09/01 12:35:16;;;;;;;3.20;2.35;;;;;;;;;;1742827;82;21488;-67
2022/09/01 12:37:43;;;;;;;;;;;;;;;;;;1753451;82;21088;-68
2022/09/01 12:40:27;;;;;;;13.08;2.00;;;;;;;;;;1741595;82;20214;-69
2022/09/01 12:42:53;;;;;;;3.33;1.47;;;;;;;;;;1670794;84;21050;-69
2022/09/01 12:45:20;;;;;;;2.92;1.62;;;;;;;;;;1665913;85;21043;-68
2022/09/01 12:47:47;;;;;;;3.02;1.70;;;;;;;;;;1678912;84;21028;-69
2022/09/01 12:50:15;;;;;;;3.20;1.57;;;;;;;;;;1730225;82;21512;-69
2022/09/01 12:52:45;;;;;;;2.45;1.67;;;;;;;;;;1741750;82;21369;-68
2022/09/01 12:55:15;;;;;;;2.25;1.60;;;;;;;;;;1737871;82;21060;-69
2022/09/01 12:57:50;;;;;;;5.12;4.03;;;;;;;;;;1728052;82;21043;-70
2022/09/01 13:00:18;;;;;;;5.83;2.00;;;;;;;;;;1737391;82;21024;-69
2022/09/01 13:02:46;;;;;;;6.12;2.75;;;;;;;;;;1742153;82;21020;-69
2022/09/01 13:05:26;;;;;;;3.45;2.30;;;;;;;;;;1745655;82;21013;-70
2022/09/01 13:07:54;;;;;;;1.65;1.55;;;;;;;;;;1732398;82;21017;-69
2022/09/01 13:10:23;;;;;;;3.17;1.70;;;;;;;;;;1737771;82;21212;-68
2022/09/01 13:12:49;;;;;;;5.45;2.22;;;;;;;;;;1733369;82;21048;-69
2022/09/01 13:15:16;;;;;;;2.80;1.50;;;;;;;;;;1748145;81;21603;-68
2022/09/01 13:17:42;;;;;;;2.10;1.50;;;;;;;;;;1743525;82;21052;-69
2022/09/01 13:20:10;;;;;;;1.90;1.40;;;;;;;;;;1741320;82;21016;-69
2022/09/01 13:22:37;;;;;;;1.40;1.30;;;;;;;;;;1744882;82;21619;-69
2022/09/01 13:25:03;;;;;;;2.25;1.45;;;;;;;;;;1748166;82;21004;-68
2022/09/01 13:27:30;;;;;;;4.60;1.80;;;;;;;;;;1742538;81;21579;-67
2022/09/01 13:29:56;;;;;;;3.30;2.22;;;;;;;;;;1746749;81;21052;-67
2022/09/01 13:32:23;;;;;;;3.15;2.27;;;;;;;;;;1733402;81;21064;-68
2022/09/01 13:34:49;;;;;;;5.37;1.70;;;;;;;;;;1741816;80;21001;-68
2022/09/01 13:37:16;;;;;;;9.58;1.80;;;;;;;;;;1741297;81;21017;-68
2022/09/01 13:39:43;;;;;;;5.30;1.95;;;;;;;;;;1746081;81;22168;-68
2022/09/01 13:42:09;;;;;;;3.77;1.70;;;;;;;;;;1744431;81;21468;-68
2022/09/01 13:44:36;;;;;;;4.50;2.50;;;;;;;;;;1746403;81;21087;-69
2022/09/01 13:47:02;;;;;;;3.60;1.75;;;;;;;;;;1743368;81;21028;-70
2022/09/01 13:49:28;;;;;;;15.38;4.75;;;;;;;;;;1744516;81;21038;-68
2022/09/01 13:51:55;;;;;;;4.80;1.92;;;;;;;;;;1740878;82;22069;-69
2022/09/01 13:54:21;;;;;;;3.35;1.62;;;;;;;;;;1734959;81;21009;-69
2022/09/01 13:56:47;;;;;;;5.00;1.90;;;;;;;;;;1739394;81;21044;-70
2022/09/01 13:59:13;;;;;;;1.55;1.40;;;;;;;;;;1739462;81;22038;-72
2022/09/01 14:01:42;;;;;;;1.87;1.47;;;;;;;;;;1744214;82;21059;-73
2022/09/01 14:04:09;;;;;;;20.52;10.90;;;;;;;;;;1733157;82;21021;-74
2022/09/01 14:06:43;;;;;;;5.12;4.15;;;;;;;;;;1735035;82;21527;-72
2022/09/01 14:09:11;;;;;;;4.45;2.62;;;;;;;;;;1734766;82;20997;-71
2022/09/01 14:11:37;;;;;;;11.48;2.20;;;;;;;;;;1739406;82;21789;-71
2022/09/01 14:14:03;;;;;;;3.50;1.80;;;;;;;;;;1735749;82;20961;-69
2022/09/01 14:16:30;;;;;;;4.83;2.00;;;;;;;;;;1749866;81;21036;-69
2022/09/01 14:18:58;;;;;;;3.45;1.70;;;;;;;;;;1733058;82;21044;-69
2022/09/01 14:21:25;;;;;;;4.17;2.33;;;;;;;;;;1728285;80;21004;-69
2022/09/01 14:23:51;;;;;;;1.30;1.20;;;;;;;;;;1728473;82;21028;-67
2022/09/01 14:26:18;;;;;;;3.27;2.02;;;;;;;;;;1740387;82;21120;-68
2022/09/01 14:28:45;;;;;;;3.75;2.45;;;;;;;;;;1735868;81;21060;-67
2022/09/01 14:31:11;;;;;;;32.38;14.78;;;;;;;;;;1749048;81;21000;-69
2022/09/01 14:33:38;;;;;;;12.50;7.50;;;;;;;;;;1714492;82;21025;-69
2022/09/01 14:36:04;;;;;;;13.70;7.78;;;;;;;;;;1721369;82;21037;-67
2022/09/01 14:38:30;;;;;;;6.87;3.02;;;;;;;;;;1719287;82;21033;-66
2022/09/01 14:40:57;;;;;;;15.88;10.70;;;;;;;;;;1731297;82;21100;-67
2022/09/01 14:43:24;;;;;;;4.95;2.37;;;;;;;;;;1728915;82;21048;-68
2022/09/01 14:45:53;;;;;;;2.05;1.50;;;;;;;;;;1730024;82;21054;-67
2022/09/01 14:48:19;;;;;;;1.30;1.20;;;;;;;;;;1722491;82;21080;-67
2022/09/01 14:50:47;;;;;;;6.12;1.92;;;;;;;;;;1730735;82;21564;-69
2022/09/01 14:53:13;;;;;;;3.10;1.82;;;;;;;;;;1738999;82;21002;-69
2022/09/01 14:55:40;;;;;;;2.12;1.30;;;;;;;;;;1728305;82;21056;-69